Flight Track Log - Related Links

Times and Time Zones

All times are in EDT time to prevent confusion due to time zone crossing. See the ASQ5958 flight status page for this flight to view local times or setup timezone preferences in your user account.

Time Position Orientation Groundspeed Altitude Reporting Facility
EDT Latitude Longitude Course Direction KTS MPH feet Rate Location/Type
Mon 07:45:53 AM 42.1953 -83.3608 228° Southwest 159 183 1,400  Level Cleveland Center
Mon 07:46:35 AM 42.1736 -83.3933 228° Southwest 196 226 2,700 1,918 Climbing Cleveland Center
Mon 07:47:30 AM 42.1344 -83.4561 230° Southwest 244 281 4,500 2,224 Climbing Cleveland Center
Mon 07:48:31 AM 42.1117 -83.5361 249° West 263 303 7,000 2,483 Climbing Cleveland Center
Mon 07:49:26 AM 42.1514 -83.6136 305° West 269 310 9,300 2,074 Climbing Cleveland Center
Mon 07:50:47 AM 42.2086 -83.7314 303° West 322 371 11,700 1,574 Climbing Cleveland Center
Mon 07:51:47 AM 42.2539 -83.8292 302° West 322 371 13,000 1,400 Climbing Cleveland Center
Mon 07:52:47 AM 42.3011 -83.9297 302° West 322 371 14,500 1,450 Climbing Cleveland Center
Mon 07:53:47 AM 42.3461 -84.0278 302° West 322 371 15,900 750 Climbing Cleveland Center
Mon 07:54:47 AM 42.3931 -84.1258 303° West 317 365 16,000 500 Climbing Cleveland Center
Mon 07:55:47 AM 42.4294 -84.2347 294° West 317 365 16,900 1,150 Climbing Cleveland Center
Mon 07:56:47 AM 42.4314 -84.3617 271° West 324 373 18,300 1,309 Climbing Cleveland Center
Mon 07:57:37 AM 42.4350 -84.4486 273° West 341 392 19,300 1,286 Climbing Chicago Center
Mon 07:58:39 AM 42.4386 -84.6083 272° West 354 407 20,700 1,161 Climbing Chicago Center
Mon 07:59:41 AM 42.4428 -84.7481 272° West 370 426 21,700 619 Climbing Chicago Center
Mon 08:00:45 AM 42.4450 -84.8933 271° West 383 441 22,000 144 Climbing Chicago Center
Mon 08:01:46 AM 42.4486 -85.0478 272° West 407 468 22,000  Level Chicago Center
Mon 08:02:48 AM 42.4514 -85.2067 271° West 421 484 22,000  Level Chicago Center
Mon 08:03:50 AM 42.4525 -85.3639 271° West 419 482 22,000  Level Chicago Center
Mon 08:04:52 AM 42.4547 -85.5558 271° West 423 487 22,000  Level Chicago Center
Mon 08:05:54 AM 42.4553 -85.7153 270° West 423 487 22,000  Level Chicago Center
Mon 08:06:55 AM 42.4567 -85.8789 271° West 430 495 22,000  Level Chicago Center
Mon 08:07:57 AM 42.4567 -86.0436 270° West 435 501 22,000  Level Chicago Center
Mon 08:08:59 AM 42.4572 -86.2097 270° West 438 504 22,000  Level Chicago Center
Mon 08:10:01 AM 42.4569 -86.3761 270° West 439 505 22,000  Level Chicago Center
Mon 08:11:03 AM 42.4569 -86.5408 270° West 439 505 22,000 -919 Level Chicago Center
Mon 08:12:05 AM 42.4581 -86.7269 271° West 433 498 20,100 -2,081 Descending Chicago Center
Mon 08:13:07 AM 42.4589 -86.8764 270° West 405 466 17,700 -2,146 Descending Chicago Center
Mon 08:14:08 AM 42.4567 -87.0092 269° West 338 389 15,700 -2,098 Descending Chicago Center
Mon 08:15:10 AM 42.4531 -87.1208 268° West 301 346 13,400 -2,419 Descending Chicago Center
Mon 08:16:12 AM 42.4228 -87.2256 249° West 298 343 10,700 -2,129 Descending Chicago Center
Mon 08:17:14 AM 42.3961 -87.3258 250° West 288 331 9,000 -1,065 Descending Chicago Center
Mon 08:18:16 AM 42.3456 -87.4064 230° Southwest 277 319 8,500 -774 Descending Chicago Center
Mon 08:19:18 AM 42.2794 -87.4483 205° Southwest 263 303 7,400 -1,016 Descending Chicago Center
Mon 08:20:20 AM 42.2144 -87.4944 208° Southwest 265 305 6,400 -823 Descending Chicago Center
Mon 08:21:22 AM 42.1406 -87.5436 206° Southwest 246 283 5,700 -823 Descending Chicago Center
Mon 08:22:24 AM 42.1003 -87.5925 222° Southwest 213 245 4,700 -823 Descending Chicago Center
Mon 08:23:26 AM 42.0739 -87.6525 239° Southwest 192 221 4,000 -581 Descending Chicago Center
Mon 08:24:28 AM 42.0528 -87.6931 235° Southwest 141 162 3,500 -484 Descending Chicago Center
Mon 08:25:30 AM 42.0311 -87.7347 235° Southwest 134 154 3,000 -629 Descending Chicago Center
Mon 08:26:32 AM 42.0106 -87.7750 236° Southwest 134 154 2,200 -629 Descending Chicago Center
Mon 08:27:34 AM 42.0017 -87.8272 257° West 122 140 1,700 -484 Descending Chicago Center
Mon 08:28:36 AM 42.0033 -87.8769 273° West 123 142 1,200 -484 Descending Chicago Center
Mon 08:30:00 AM 41.9817 -87.9067 206° Southwest  Level Estimated

Login

Don't have an account? Register now (free) for customized features, flight alerts, and more!